Walla Walla Regional Airport
KALW : rendu visible

Aérodrome :











RETROUVEZ-NOUS SUR...

 
LOGIN :

S'inscrire | Disclaimer

   EN    FR    IT 

 









Légende :    VFR   VFR Marginal   IFR   IFR Intensif   IFR Très Intensif
Visi : 
Plafond : 
>= 8 km
>= 3000ft
5 à 8 km
1000 à 3000 ft
1500m à 5 km
500 à 1000 ft
800 à 1500m
200 à 500 ft
< 800m
< 200 ft
Symboles :   Orages  Brouillard  Fortes neiges  Fortes précipitations  Vent > 20 kt






- Altitude de l'aérodrome : 1194 ft
- Code IATA : ALW


KALW - Walla Walla Regional

DERNIER METAR :
  • 180853Z AUTO 00000KT 10SM OVC075 01/M04 A3024 RMK AO2 SLP251 T00111039 56002

METARs EXPIRÉS :
  • 180753Z AUTO 00000KT 10SM BKN075 M01/M06 A3024 RMK AO2 SLP254 T10111056 400331033
  • 180653Z AUTO 09005KT 10SM CLR 00/M04 A3023 RMK AO2 SLP250 T00001044

TAF KALW
Valide du 18 à 09h jusqu'au 19 à 06h UTC


180853Z 1809/1906 18005KT P6SM BKN080
FM181000 18006KT P6SM OVC050
FM181600 19004KT 2SM -SN BR OVC020
FM182200 17005KT 6SM BR VCSH OVC025
FM190100 17005KT P6SM OVC025



MET'MAP, la Météo Aéronautique d'un coup d'oeil ! - Copyright ORBIFLY Décembre 2007 - Disclaimer

ORBIFLY MET'MAP TEAM :

Programmation & Développement : Alexandra Zaïnal
Sur une idée originale de : Baudouin d'Aumeries
Assistance à la programmation : Marc-Olivier Méhu
Soutien technique & logistique : Manuel Goepfert

Contact : metmap@orbifly.com




SOURCES & CREDITS :

   NOAA       Earth
Advisory